createdAt,value
2022-08-26T00:01:54.327Z,12.85
2022-08-26T00:04:23.714Z,14.65
2022-08-26T00:06:51.326Z,13.18
2022-08-26T00:09:18.181Z,10.48
2022-08-26T00:11:46.082Z,14.63
2022-08-26T00:14:16.307Z,13.40
2022-08-26T00:16:47.545Z,11.63
2022-08-26T00:19:16.944Z,15.05
2022-08-26T00:21:43.986Z,11.68
2022-08-26T00:24:10.910Z,11.88
2022-08-26T00:26:39.510Z,13.77
2022-08-26T00:29:08.589Z,12.38
2022-08-26T00:31:36.683Z,11.60
2022-08-26T00:34:04.070Z,17.17
2022-08-26T00:36:31.929Z,12.75
2022-08-26T00:38:59.210Z,12.60
2022-08-26T00:41:26.171Z,12.77
2022-08-26T00:43:53.281Z,13.70
2022-08-26T00:46:25.357Z,11.18
2022-08-26T00:48:58.236Z,14.75
2022-08-26T00:54:10.747Z,10.85
2022-08-26T00:56:55.285Z,13.63
2022-08-26T00:59:23.583Z,12.40
2022-08-26T01:01:51.569Z,12.73
2022-08-26T01:04:21.437Z,13.60
2022-08-26T01:06:50.139Z,13.25
2022-08-26T01:09:19.384Z,15.18
2022-08-26T01:11:48.982Z,11.50
2022-08-26T01:14:17.494Z,13.82
2022-08-26T01:16:48.203Z,15.07
2022-08-26T01:19:51.026Z,14.40
2022-08-26T01:24:55.608Z,13.40
2022-08-26T01:27:23.426Z,13.18
2022-08-26T01:29:51.698Z,14.75
2022-08-26T01:32:23.340Z,18.60
2022-08-26T01:34:50.943Z,15.18
2022-08-26T01:37:23.206Z,13.48
2022-08-26T01:39:53.322Z,14.80
2022-08-26T01:42:23.850Z,16.38
2022-08-26T01:45:18.394Z,18.98
2022-08-26T01:47:48.740Z,13.35
2022-08-26T01:50:28.042Z,12.25
2022-08-26T01:52:59.155Z,15.23
2022-08-26T01:55:33.450Z,13.43
2022-08-26T01:58:06.267Z,13.43
2022-08-26T02:00:35.132Z,13.25
2022-08-26T02:03:21.629Z,12.00
2022-08-26T02:05:54.226Z,13.27
2022-08-26T02:08:38.096Z,14.57
2022-08-26T02:11:05.470Z,12.70
2022-08-26T02:13:38.012Z,15.98
2022-08-26T02:16:05.660Z,14.48
2022-08-26T02:18:38.647Z,13.15
2022-08-26T02:21:07.452Z,12.88
2022-08-26T02:23:35.816Z,16.50
2022-08-26T02:26:17.826Z,13.70
2022-08-26T02:28:58.554Z,11.90
2022-08-26T02:31:25.669Z,12.68
2022-08-26T02:33:52.535Z,11.60
2022-08-26T02:36:21.816Z,12.55
2022-08-26T02:38:48.731Z,12.52
2022-08-26T02:41:15.615Z,11.75
2022-08-26T02:43:44.944Z,10.13
2022-08-26T02:46:11.749Z,12.13
2022-08-26T02:48:48.203Z,11.75
2022-08-26T02:51:15.620Z,11.27
2022-08-26T02:53:42.579Z,11.80
2022-08-26T02:56:09.893Z,11.27
2022-08-26T02:58:37.060Z,12.82
2022-08-26T03:01:04.760Z,10.65
2022-08-26T03:03:32.710Z,13.52
2022-08-26T03:05:59.484Z,13.93
2022-08-26T03:08:26.270Z,10.93
2022-08-26T03:10:54.100Z,12.80
2022-08-26T03:13:20.936Z,13.18
2022-08-26T03:15:47.987Z,11.52
2022-08-26T03:18:15.250Z,10.23
2022-08-26T03:20:42.034Z,15.23
2022-08-26T03:23:10.968Z,11.30
2022-08-26T03:25:37.839Z,11.85
2022-08-26T03:28:05.018Z,12.70
2022-08-26T03:30:45.385Z,10.15
2022-08-26T03:33:14.023Z,14.23
2022-08-26T03:35:43.580Z,12.43
2022-08-26T03:38:11.139Z,12.32
2022-08-26T03:40:39.071Z,8.23
2022-08-26T03:43:09.509Z,10.65
2022-08-26T03:45:37.720Z,13.93
2022-08-26T03:48:05.329Z,13.35
2022-08-26T03:50:34.218Z,13.65
2022-08-26T03:53:04.070Z,10.63
2022-08-26T03:55:32.685Z,8.98
2022-08-26T03:58:00.788Z,12.10
2022-08-26T04:00:28.437Z,11.93
2022-08-26T04:02:55.534Z,12.77
2022-08-26T04:05:23.194Z,12.38
2022-08-26T04:07:51.179Z,16.15
2022-08-26T04:10:29.011Z,31.73
2022-08-26T04:12:58.820Z,38.83
2022-08-26T04:15:27.048Z,40.42
2022-08-26T04:17:54.055Z,25.27
2022-08-26T04:20:22.859Z,22.98
2022-08-26T04:22:50.837Z,17.90
2022-08-26T04:25:18.647Z,21.63
2022-08-26T04:27:48.286Z,14.75
2022-08-26T04:30:16.714Z,9.77
2022-08-26T04:32:43.962Z,8.38
2022-08-26T04:35:10.902Z,8.38
2022-08-26T04:37:37.783Z,10.10
2022-08-26T04:40:05.941Z,9.13
2022-08-26T04:42:33.486Z,10.13
2022-08-26T04:45:01.163Z,7.97
2022-08-26T04:47:32.102Z,10.18
2022-08-26T04:50:00.019Z,9.88
2022-08-26T04:52:26.813Z,8.43
2022-08-26T04:54:55.031Z,10.98
2022-08-26T04:57:23.328Z,9.90
2022-08-26T04:59:50.214Z,14.48
2022-08-26T05:02:17.145Z,14.05
2022-08-26T05:04:44.044Z,9.18
2022-08-26T05:07:11.485Z,12.23
2022-08-26T05:09:40.652Z,10.43
2022-08-26T05:12:08.140Z,8.77
2022-08-26T05:14:36.618Z,11.02
2022-08-26T05:17:04.127Z,9.02
2022-08-26T05:19:31.902Z,16.67
2022-08-26T05:22:00.050Z,12.45
2022-08-26T05:24:27.434Z,8.93
2022-08-26T05:26:54.582Z,8.63
2022-08-26T05:29:23.850Z,9.25
2022-08-26T05:31:52.325Z,8.57
2022-08-26T05:34:20.830Z,11.75
2022-08-26T05:36:48.288Z,9.60
2022-08-26T05:39:15.400Z,10.60
2022-08-26T05:41:44.873Z,12.05
2022-08-26T05:44:14.775Z,11.85
2022-08-26T05:46:43.953Z,13.25
2022-08-26T05:49:12.995Z,14.00
2022-08-26T05:51:42.281Z,10.43
2022-08-26T05:54:10.455Z,7.50
2022-08-26T05:56:38.625Z,12.05
2022-08-26T05:59:06.655Z,10.05
2022-08-26T06:01:42.522Z,7.50
2022-08-26T06:04:10.210Z,11.30
2022-08-26T06:06:41.599Z,13.70
2022-08-26T06:09:11.208Z,11.10
2022-08-26T06:11:40.323Z,8.85
2022-08-26T06:14:08.445Z,9.55
2022-08-26T06:16:41.705Z,7.07
2022-08-26T06:19:10.502Z,8.07
2022-08-26T06:21:40.762Z,7.72
2022-08-26T06:24:29.487Z,9.38
2022-08-26T06:27:01.588Z,9.15
2022-08-26T06:29:30.935Z,9.45
2022-08-26T06:31:58.672Z,12.20
2022-08-26T06:34:30.465Z,14.07
2022-08-26T06:39:30.742Z,14.85
2022-08-26T06:41:59.088Z,10.82
2022-08-26T06:44:28.084Z,11.15
2022-08-26T06:46:56.582Z,10.68
2022-08-26T06:49:26.735Z,11.27
2022-08-26T06:52:00.527Z,13.20
2022-08-26T06:54:32.235Z,18.52
2022-08-26T06:57:01.855Z,13.68
2022-08-26T06:59:31.813Z,14.40
2022-08-26T07:02:00.780Z,16.45
2022-08-26T07:04:30.697Z,7.95
2022-08-26T07:06:59.427Z,10.68
2022-08-26T07:09:31.214Z,18.92
2022-08-26T07:12:00.788Z,10.98
2022-08-26T07:14:29.430Z,12.18
2022-08-26T07:16:56.789Z,18.08
2022-08-26T07:19:31.067Z,9.88
2022-08-26T07:22:02.284Z,10.10
2022-08-26T07:27:01.327Z,10.02
2022-08-26T07:29:29.272Z,9.70
2022-08-26T07:31:56.365Z,10.57
2022-08-26T07:34:24.166Z,9.38
2022-08-26T07:36:51.674Z,8.52
2022-08-26T07:39:19.403Z,10.50
2022-08-26T07:41:47.396Z,9.05
2022-08-26T07:44:15.572Z,10.15
2022-08-26T07:46:44.254Z,12.30
2022-08-26T07:49:20.176Z,14.30
2022-08-26T07:51:47.201Z,13.15
2022-08-26T07:54:14.175Z,10.85
2022-08-26T07:56:41.006Z,9.20
2022-08-26T07:59:13.420Z,12.63
2022-08-26T08:01:41.412Z,9.98
2022-08-26T08:04:17.368Z,8.18
2022-08-26T08:06:46.360Z,10.25
2022-08-26T08:09:16.123Z,8.02
2022-08-26T08:11:45.018Z,14.40
2022-08-26T08:14:12.679Z,11.63
2022-08-26T08:16:45.831Z,9.07
2022-08-26T08:19:14.484Z,12.07
2022-08-26T08:21:41.691Z,13.00
2022-08-26T08:24:08.759Z,13.38
2022-08-26T08:26:35.718Z,9.27
2022-08-26T08:29:03.672Z,8.85
2022-08-26T08:34:21.436Z,12.30
2022-08-26T08:36:49.614Z,17.08
2022-08-26T08:39:17.673Z,14.55
2022-08-26T08:41:59.837Z,13.43
2022-08-26T08:47:00.398Z,12.07
2022-08-26T08:49:29.245Z,10.23
2022-08-26T08:52:10.809Z,16.38
2022-08-26T08:54:38.701Z,16.70
2022-08-26T08:57:26.621Z,11.80
2022-08-26T09:00:09.014Z,19.10
2022-08-26T09:02:45.529Z,15.07
2022-08-26T09:05:40.217Z,16.20
2022-08-26T09:08:21.067Z,14.25
2022-08-26T09:10:54.466Z,11.18
2022-08-26T09:13:25.117Z,13.02
2022-08-26T09:16:15.889Z,12.68
2022-08-26T09:18:54.903Z,6.10
2022-08-26T09:21:25.277Z,12.48
2022-08-26T09:23:56.842Z,10.30
2022-08-26T09:26:41.278Z,15.02
2022-08-26T09:32:13.058Z,13.93
2022-08-26T09:34:55.978Z,10.88
2022-08-26T09:37:36.788Z,10.73
2022-08-26T09:40:12.774Z,12.10
2022-08-26T09:42:39.736Z,9.38
2022-08-26T09:45:10.556Z,14.23
2022-08-26T09:47:52.929Z,14.70
2022-08-26T09:50:29.163Z,11.13
2022-08-26T09:53:30.419Z,7.65
2022-08-26T09:56:12.909Z,8.25
2022-08-26T09:58:43.064Z,6.50
2022-08-26T10:01:30.109Z,10.70
2022-08-26T10:04:06.845Z,10.10
2022-08-26T10:06:39.419Z,8.00
2022-08-26T10:09:10.992Z,13.88
2022-08-26T10:11:49.114Z,7.32
2022-08-26T10:14:31.035Z,8.25
2022-08-26T10:17:11.276Z,7.70
2022-08-26T10:19:57.046Z,8.55
2022-08-26T10:22:24.479Z,9.15
2022-08-26T10:24:58.064Z,8.40
2022-08-26T10:27:24.875Z,5.65
2022-08-26T10:29:57.270Z,9.00
2022-08-26T10:32:35.226Z,6.18
2022-08-26T10:35:11.908Z,5.90
2022-08-26T10:37:45.031Z,5.70
2022-08-26T10:40:23.799Z,7.38
2022-08-26T10:43:11.558Z,6.57
2022-08-26T10:45:51.104Z,8.88
2022-08-26T10:48:44.008Z,5.18
2022-08-26T10:51:14.677Z,6.38
2022-08-26T10:53:51.475Z,4.35
2022-08-26T10:56:52.832Z,5.07
2022-08-26T10:59:25.703Z,6.68
2022-08-26T11:02:24.661Z,9.63
2022-08-26T11:04:55.108Z,8.07
2022-08-26T11:07:42.009Z,4.05
2022-08-26T11:10:20.868Z,6.88
2022-08-26T11:12:55.249Z,6.03
2022-08-26T11:15:29.503Z,6.32
2022-08-26T11:18:11.544Z,7.70
2022-08-26T11:20:45.894Z,6.93
2022-08-26T11:23:13.026Z,6.50
2022-08-26T11:26:04.350Z,5.93
2022-08-26T11:28:36.996Z,5.50
2022-08-26T11:31:08.712Z,5.82
2022-08-26T11:33:52.416Z,6.07
2022-08-26T11:36:45.621Z,3.30
2022-08-26T11:39:18.592Z,6.55
2022-08-26T11:41:48.468Z,8.52
2022-08-26T11:44:23.278Z,4.15
2022-08-26T11:46:59.689Z,6.65
2022-08-26T11:49:33.432Z,5.00
2022-08-26T11:52:22.228Z,8.18
2022-08-26T11:55:15.206Z,4.15
2022-08-26T11:57:49.864Z,13.32
2022-08-26T12:00:23.834Z,5.43
2022-08-26T12:02:52.530Z,5.28
2022-08-26T12:05:38.299Z,7.07
2022-08-26T12:08:11.572Z,3.28
2022-08-26T12:10:39.067Z,3.55
2022-08-26T12:13:17.924Z,3.83
2022-08-26T12:15:53.417Z,5.97
2022-08-26T12:18:30.120Z,5.97
2022-08-26T12:20:59.968Z,3.75
2022-08-26T12:23:32.591Z,7.05
2022-08-26T12:26:07.364Z,6.35
2022-08-26T12:29:12.658Z,3.33
2022-08-26T12:32:07.543Z,5.18
2022-08-26T12:34:34.700Z,9.43
2022-08-26T12:37:03.220Z,5.18
2022-08-26T12:39:36.911Z,6.65
2022-08-26T12:42:07.948Z,3.95
2022-08-26T12:44:37.960Z,6.03
2022-08-26T12:47:23.415Z,6.90
2022-08-26T12:50:18.326Z,5.03
2022-08-26T12:53:09.744Z,3.72
2022-08-26T12:58:16.933Z,8.82
2022-08-26T13:01:09.015Z,5.10
2022-08-26T13:03:38.865Z,10.32
2022-08-26T13:06:31.537Z,3.47
2022-08-26T13:08:58.534Z,5.50
2022-08-26T13:11:28.074Z,7.85
2022-08-26T13:14:07.001Z,4.55
2022-08-26T13:16:35.235Z,3.70
2022-08-26T13:19:10.395Z,4.70
2022-08-26T13:21:44.799Z,5.97
2022-08-26T13:24:14.945Z,5.55
2022-08-26T13:26:46.503Z,4.43
2022-08-26T13:29:13.842Z,4.90
2022-08-26T13:31:44.133Z,4.93
2022-08-26T13:34:15.558Z,6.13
2022-08-26T13:36:44.976Z,5.70
2022-08-26T13:39:12.441Z,3.78
2022-08-26T13:41:39.658Z,5.75
2022-08-26T13:44:07.108Z,5.38
2022-08-26T13:46:34.429Z,3.83
2022-08-26T13:49:01.459Z,4.95
2022-08-26T13:51:29.059Z,8.95
2022-08-26T13:53:57.657Z,7.03
2022-08-26T13:56:29.504Z,5.93
2022-08-26T13:58:57.674Z,7.22
2022-08-26T14:01:25.678Z,7.97
2022-08-26T14:03:53.146Z,5.30
2022-08-26T14:06:20.962Z,3.28
2022-08-26T14:08:48.716Z,4.38
2022-08-26T14:11:15.979Z,6.72
2022-08-26T14:13:43.264Z,5.57
2022-08-26T14:16:22.124Z,4.65
2022-08-26T14:18:51.012Z,5.05
2022-08-26T14:21:18.359Z,7.88
2022-08-26T14:23:45.396Z,4.65
2022-08-26T14:26:19.011Z,4.60
2022-08-26T14:28:59.867Z,7.47
2022-08-26T14:31:29.590Z,6.63
2022-08-26T14:34:03.165Z,5.35
2022-08-26T14:36:33.008Z,5.72
2022-08-26T14:39:03.970Z,7.93
2022-08-26T14:41:32.239Z,3.92
2022-08-26T14:44:03.334Z,7.13
2022-08-26T14:46:34.206Z,6.60
2022-08-26T14:49:05.251Z,5.68
2022-08-26T14:51:34.525Z,5.60
2022-08-26T14:54:20.028Z,6.95
2022-08-26T14:57:00.500Z,5.50
2022-08-26T14:59:34.014Z,8.18
2022-08-26T15:02:01.272Z,6.13
2022-08-26T15:04:28.626Z,6.78
2022-08-26T15:06:57.715Z,7.53
2022-08-26T15:09:25.603Z,5.50
2022-08-26T15:11:53.258Z,5.80
2022-08-26T15:14:22.181Z,3.58
2022-08-26T15:16:51.103Z,6.60
2022-08-26T15:19:19.057Z,6.25
2022-08-26T15:21:49.780Z,5.03
2022-08-26T15:24:20.287Z,5.13
2022-08-26T15:26:48.704Z,4.55
2022-08-26T15:29:15.946Z,5.47
2022-08-26T15:31:43.134Z,8.68
2022-08-26T15:34:16.490Z,4.40
2022-08-26T15:36:46.393Z,6.15
2022-08-26T15:39:14.747Z,6.50
2022-08-26T15:41:41.722Z,3.95
2022-08-26T15:44:10.248Z,5.25
2022-08-26T15:46:39.231Z,6.05
2022-08-26T15:49:07.208Z,10.05
2022-08-26T15:51:45.538Z,8.75
2022-08-26T15:54:14.470Z,4.97
2022-08-26T15:56:41.299Z,5.88
2022-08-26T15:59:11.720Z,9.10
2022-08-26T16:01:39.937Z,4.45
2022-08-26T16:04:07.372Z,7.45
2022-08-26T16:06:36.792Z,7.60
2022-08-26T16:09:04.707Z,8.10
2022-08-26T16:11:31.606Z,7.75
2022-08-26T16:13:58.579Z,5.90
2022-08-26T16:16:25.906Z,7.28
2022-08-26T16:18:52.919Z,5.60
2022-08-26T16:21:23.188Z,6.63
2022-08-26T16:23:50.128Z,8.75
2022-08-26T16:26:24.882Z,16.40
2022-08-26T16:28:52.747Z,8.98
2022-08-26T16:31:21.361Z,7.80
2022-08-26T16:33:48.238Z,7.65
2022-08-26T16:36:15.206Z,5.53
2022-08-26T16:38:47.691Z,9.18
2022-08-26T16:41:14.614Z,10.85
2022-08-26T16:43:41.440Z,5.10
2022-08-26T16:46:08.408Z,6.68
2022-08-26T16:48:35.345Z,7.25
2022-08-26T16:51:02.106Z,18.63
2022-08-26T16:53:29.160Z,7.60
2022-08-26T16:55:55.958Z,5.57
2022-08-26T16:58:22.939Z,5.18
2022-08-26T17:00:49.944Z,5.75
2022-08-26T17:03:17.485Z,5.47
2022-08-26T17:05:44.675Z,10.10
2022-08-26T17:08:14.533Z,11.85
2022-08-26T17:10:51.803Z,13.93
2022-08-26T17:13:25.977Z,78.82
2022-08-26T17:16:05.047Z,35.78
2022-08-26T17:18:33.528Z,16.85
2022-08-26T17:21:06.802Z,9.68
2022-08-26T17:23:34.486Z,11.93
2022-08-26T17:26:01.313Z,7.38
2022-08-26T17:28:28.275Z,7.00
2022-08-26T17:30:59.000Z,10.90
2022-08-26T17:33:26.332Z,12.85
2022-08-26T17:35:53.822Z,10.25
2022-08-26T17:38:21.476Z,7.78
2022-08-26T17:40:50.490Z,22.88
2022-08-26T17:43:18.060Z,21.80
2022-08-26T17:45:45.124Z,26.42
2022-08-26T17:48:12.746Z,21.45
2022-08-26T17:50:41.410Z,15.77
2022-08-26T17:53:08.795Z,17.60
2022-08-26T17:55:41.853Z,15.35
2022-08-26T17:58:12.033Z,14.40
2022-08-26T18:00:50.818Z,22.13
2022-08-26T18:03:19.142Z,15.80
2022-08-26T18:05:51.547Z,13.30
2022-08-26T18:08:19.497Z,14.00
2022-08-26T18:10:46.880Z,13.32
2022-08-26T18:13:14.942Z,4.93
2022-08-26T18:15:43.804Z,5.85
2022-08-26T18:18:12.009Z,10.48
2022-08-26T18:20:40.394Z,5.70
2022-08-26T18:23:07.465Z,5.05
2022-08-26T18:25:34.601Z,8.32
2022-08-26T18:28:01.496Z,5.00
2022-08-26T18:30:28.239Z,8.80
2022-08-26T18:32:55.029Z,10.77
2022-08-26T18:35:21.959Z,8.98
2022-08-26T18:37:48.826Z,10.10
2022-08-26T18:40:16.439Z,7.40
2022-08-26T18:42:44.026Z,6.30
2022-08-26T18:45:16.279Z,6.07
2022-08-26T18:47:43.977Z,5.25
2022-08-26T18:50:11.278Z,7.55
2022-08-26T18:52:38.153Z,7.43
2022-08-26T18:55:05.437Z,6.53
2022-08-26T18:57:32.305Z,5.72
2022-08-26T18:59:59.257Z,9.75
2022-08-26T19:02:26.245Z,8.27
2022-08-26T19:04:53.100Z,8.95
2022-08-26T19:07:20.655Z,14.30
2022-08-26T19:09:47.620Z,14.48
2022-08-26T19:12:21.330Z,31.95
2022-08-26T19:14:48.055Z,31.23
2022-08-26T19:17:15.215Z,27.55
2022-08-26T19:19:42.026Z,32.72
2022-08-26T19:22:08.870Z,40.05
2022-08-26T19:24:35.709Z,32.67
2022-08-26T19:27:03.608Z,25.08
2022-08-26T19:29:33.890Z,13.70
2022-08-26T19:32:02.119Z,14.25
2022-08-26T19:34:29.523Z,10.57
2022-08-26T19:36:58.367Z,9.82
2022-08-26T19:39:26.545Z,12.25
2022-08-26T19:41:53.874Z,13.25
2022-08-26T19:44:41.483Z,13.63
2022-08-26T19:47:10.027Z,10.20
2022-08-26T19:49:37.666Z,9.00
2022-08-26T19:52:05.720Z,10.18
2022-08-26T19:54:33.255Z,7.70
2022-08-26T19:57:00.225Z,9.75
2022-08-26T19:59:27.131Z,10.70
2022-08-26T20:02:01.200Z,9.45
2022-08-26T20:04:31.708Z,14.23
2022-08-26T20:07:00.903Z,8.30
2022-08-26T20:09:29.976Z,9.63
2022-08-26T20:11:57.408Z,12.43
2022-08-26T20:14:26.002Z,9.50
2022-08-26T20:16:53.032Z,8.68
2022-08-26T20:19:38.546Z,11.70
2022-08-26T20:22:06.432Z,11.45
2022-08-26T20:24:35.156Z,9.82
2022-08-26T20:27:06.839Z,14.48
2022-08-26T20:29:34.892Z,8.80
2022-08-26T20:32:02.796Z,10.02
2022-08-26T20:34:30.180Z,11.07
2022-08-26T20:36:57.046Z,9.95
2022-08-26T20:39:23.936Z,10.35
2022-08-26T20:41:51.173Z,9.55
2022-08-26T20:44:18.069Z,9.27
2022-08-26T20:46:45.456Z,13.98
2022-08-26T20:49:13.454Z,7.95
2022-08-26T20:51:42.410Z,12.15
2022-08-26T20:54:11.704Z,7.95
2022-08-26T20:56:39.393Z,11.60
2022-08-26T20:59:07.658Z,6.93
2022-08-26T21:01:36.870Z,10.93
2022-08-26T21:04:12.184Z,8.68
2022-08-26T21:06:39.056Z,7.47
2022-08-26T21:09:10.925Z,11.48
2022-08-26T21:11:38.606Z,9.50
2022-08-26T21:14:07.074Z,10.18
2022-08-26T21:16:44.828Z,9.35
2022-08-26T21:19:14.597Z,8.25
2022-08-26T21:21:41.998Z,9.65
2022-08-26T21:24:09.393Z,11.50
2022-08-26T21:26:36.667Z,11.57
2022-08-26T21:29:04.295Z,9.65
2022-08-26T21:31:32.125Z,10.90
2022-08-26T21:33:59.805Z,11.15
2022-08-26T21:36:26.860Z,10.63
2022-08-26T21:38:59.077Z,9.98
2022-08-26T21:41:27.289Z,13.23
2022-08-26T21:43:59.219Z,8.27
2022-08-26T21:46:29.165Z,11.73
2022-08-26T21:49:01.564Z,11.85
2022-08-26T21:51:34.480Z,8.00
2022-08-26T21:54:03.684Z,9.73
2022-08-26T21:56:34.644Z,10.07
2022-08-26T21:59:02.156Z,10.50
2022-08-26T22:01:34.678Z,10.57
2022-08-26T22:06:33.736Z,10.07
2022-08-26T22:09:00.936Z,9.25
2022-08-26T22:11:28.678Z,13.07
2022-08-26T22:13:56.972Z,12.00
2022-08-26T22:16:26.820Z,13.45
2022-08-26T22:18:54.871Z,11.52
2022-08-26T22:21:24.393Z,13.25
2022-08-26T22:23:51.497Z,10.13
2022-08-26T22:26:25.451Z,12.43
2022-08-26T22:28:59.156Z,11.30
2022-08-26T22:31:37.960Z,8.77
2022-08-26T22:34:10.226Z,10.38
2022-08-26T22:36:43.058Z,9.27
2022-08-26T22:39:12.929Z,13.10
2022-08-26T22:41:40.292Z,8.65
2022-08-26T22:44:07.591Z,16.92
2022-08-26T22:46:36.763Z,12.35
2022-08-26T22:49:05.077Z,9.25
2022-08-26T22:51:32.209Z,11.93
2022-08-26T22:53:59.499Z,14.57
2022-08-26T22:56:26.422Z,9.63
2022-08-26T22:58:53.457Z,9.95
2022-08-26T23:01:20.530Z,14.85
2022-08-26T23:03:47.569Z,10.32
2022-08-26T23:06:14.406Z,13.13
2022-08-26T23:08:42.064Z,11.50
2022-08-26T23:11:10.860Z,10.50
2022-08-26T23:13:38.752Z,10.13
2022-08-26T23:16:09.265Z,9.15
2022-08-26T23:18:36.383Z,9.55
2022-08-26T23:21:03.467Z,12.75
2022-08-26T23:23:31.193Z,10.20
2022-08-26T23:25:58.491Z,10.85
2022-08-26T23:28:25.861Z,12.98
2022-08-26T23:30:53.741Z,14.85
2022-08-26T23:33:21.384Z,12.98
2022-08-26T23:35:48.234Z,11.98
2022-08-26T23:38:16.303Z,11.55
2022-08-26T23:40:43.368Z,11.45
2022-08-26T23:43:11.648Z,13.38
2022-08-26T23:45:38.947Z,13.07
2022-08-26T23:48:06.823Z,10.48
2022-08-26T23:50:52.582Z,13.85
2022-08-26T23:53:22.327Z,11.35
2022-08-26T23:55:51.983Z,10.43
2022-08-26T23:58:20.974Z,13.43
